Time;durP1;ratioP1;P1;durP2;ratioP2;P2;SDS_P1;SDS_P2;PMS_P1;PMS_P2;Temp;Humidity;BMP_temperature;BMP_pressure;BME280_temperature;BME280_humidity;BME280_pressure;Samples;Min_cycle;Max_cycle;Signal;HPM_P1;HPM_P2
2024/01/22 00:02:31;;;;;;;0.10;0.10;;;;;;;2.38;100.00;99511.28;5052205;28;20224;-53
2024/01/22 00:05:18;;;;;;;0.00;0.00;;;;;;;2.40;100.00;99504.28;5052042;28;20594;-52
2024/01/22 00:08:06;;;;;;;0.10;0.10;;;;;;;2.40;100.00;99506.88;5050391;28;20223;-52
2024/01/22 00:10:53;;;;;;;0.00;0.00;;;;;;;2.41;100.00;99500.75;5051747;28;20334;-52
2024/01/22 00:13:41;;;;;;;0.00;0.00;;;;;;;2.35;100.00;99507.00;5053062;28;20195;-53
2024/01/22 00:16:28;;;;;;;0.00;0.00;;;;;;;2.24;100.00;99491.59;5053147;28;20205;-52
2024/01/22 00:19:15;;;;;;;0.00;0.00;;;;;;;2.24;100.00;99485.53;5053060;28;20234;-52
2024/01/22 00:22:02;;;;;;;0.00;0.00;;;;;;;2.26;100.00;99479.34;5052907;28;20220;-51
2024/01/22 00:24:49;;;;;;;0.10;0.10;;;;;;;2.20;100.00;99482.09;5031785;28;20200;-52
2024/01/22 00:27:36;;;;;;;0.00;0.00;;;;;;;2.24;100.00;99475.06;5033013;28;20200;-52
2024/01/22 00:30:25;;;;;;;0.00;0.00;;;;;;;2.29;100.00;99460.13;5033025;28;20205;-53
2024/01/22 00:33:11;;;;;;;0.00;0.00;;;;;;;2.28;100.00;99458.41;5042331;28;20204;-53
2024/01/22 00:35:58;;;;;;;0.00;0.00;;;;;;;2.29;100.00;99467.94;5053012;28;20191;-52
2024/01/22 00:38:46;;;;;;;0.00;0.00;;;;;;;2.36;100.00;99442.53;5052973;28;20200;-52
2024/01/22 00:41:33;;;;;;;0.10;0.10;;;;;;;2.42;100.00;99450.22;5051522;28;20244;-52
2024/01/22 00:44:20;;;;;;;0.00;0.00;;;;;;;2.41;100.00;99435.41;5052724;28;20222;-53
2024/01/22 00:47:08;;;;;;;0.10;0.10;;;;;;;2.48;100.00;99440.44;5052896;28;20196;-52
2024/01/22 00:49:55;;;;;;;0.00;0.00;;;;;;;2.51;100.00;99434.25;5052800;28;20225;-53
2024/01/22 00:52:41;;;;;;;0.10;0.10;;;;;;;2.54;100.00;99435.06;5052351;28;20689;-52
2024/01/22 00:55:28;;;;;;;0.10;0.10;;;;;;;2.68;100.00;99425.97;5051391;28;20259;-53
2024/01/22 00:58:15;;;;;;;0.00;0.00;;;;;;;2.79;100.00;99424.75;5052646;28;20200;-52
2024/01/22 01:01:02;;;;;;;0.10;0.10;;;;;;;2.92;100.00;99424.44;5052172;28;20196;-52
2024/01/22 01:03:50;;;;;;;0.03;0.03;;;;;;;2.96;100.00;99402.50;5049906;28;20232;-52
2024/01/22 01:06:37;;;;;;;0.00;0.00;;;;;;;3.08;100.00;99397.75;5052640;28;20196;-53
2024/01/22 01:09:24;;;;;;;0.00;0.00;;;;;;;3.10;100.00;99387.28;5051323;28;20195;-52
2024/01/22 01:12:11;;;;;;;0.10;0.10;;;;;;;2.99;100.00;99381.47;5052490;28;20235;-52
2024/01/22 01:14:58;;;;;;;0.00;0.00;;;;;;;2.91;100.00;99373.88;5053366;28;20242;-52
2024/01/22 01:17:45;;;;;;;0.00;0.00;;;;;;;2.93;100.00;99393.00;5056529;28;20188;-51
2024/01/22 01:20:34;;;;;;;0.00;0.00;;;;;;;3.03;100.00;99383.97;5056473;28;20195;-52
2024/01/22 01:23:21;;;;;;;0.10;0.10;;;;;;;3.09;100.00;99396.03;5056088;28;20738;-52
2024/01/22 01:26:08;;;;;;;0.10;0.10;;;;;;;3.11;100.00;99396.84;5055009;28;20192;-52
2024/01/22 01:28:55;;;;;;;0.00;0.00;;;;;;;3.27;100.00;99386.72;5056304;28;20195;-52
2024/01/22 01:31:42;;;;;;;0.00;0.00;;;;;;;3.36;100.00;99399.53;5056298;28;20222;-52
2024/01/22 01:34:29;;;;;;;0.00;0.00;;;;;;;3.35;100.00;99369.03;5056128;28;20207;-53
2024/01/22 01:37:17;;;;;;;0.10;0.10;;;;;;;3.42;100.00;99370.56;5056160;28;20220;-52
2024/01/22 01:40:04;;;;;;;0.00;0.00;;;;;;;3.42;100.00;99337.38;5054747;28;20216;-52
2024/01/22 01:42:51;;;;;;;0.10;0.10;;;;;;;3.51;100.00;99338.00;5055712;28;20234;-52
2024/01/22 01:45:38;;;;;;;0.00;0.00;;;;;;;3.42;100.00;99341.75;5055951;28;20192;-53
2024/01/22 01:48:27;;;;;;;0.00;0.00;;;;;;;3.40;100.00;99349.69;5055991;28;20196;-52
2024/01/22 01:51:13;;;;;;;0.10;0.10;;;;;;;3.34;100.00;99351.63;5055924;28;20204;-52
2024/01/22 01:54:05;;;;;;;0.00;0.00;;;;;;;3.31;100.00;99347.34;5055763;28;20674;-52
2024/01/22 01:56:52;;;;;;;0.03;0.03;;;;;;;3.37;100.00;99346.28;5055627;28;20555;-52
2024/01/22 01:59:40;;;;;;;0.00;0.00;;;;;;;3.32;100.00;99333.34;5055211;28;20370;-53
2024/01/22 02:02:27;;;;;;;0.00;0.00;;;;;;;3.31;100.00;99330.78;5037441;28;20333;-53
2024/01/22 02:05:15;;;;;;;0.00;0.00;;;;;;;3.32;100.00;99329.88;5055541;28;20196;-53
2024/01/22 02:08:03;;;;;;;0.00;0.00;;;;;;;3.26;100.00;99327.44;5055181;28;20300;-52
2024/01/22 02:10:51;;;;;;;0.10;0.10;;;;;;;3.32;100.00;99293.22;5054351;28;20204;-52
2024/01/22 02:13:38;;;;;;;0.00;0.00;;;;;;;3.28;100.00;99317.78;5055239;28;20192;-53
2024/01/22 02:16:25;;;;;;;0.00;0.00;;;;;;;3.31;100.00;99307.22;5055546;28;20243;-53
2024/01/22 02:19:12;;;;;;;0.00;0.00;;;;;;;3.28;100.00;99281.13;5055300;28;20195;-53
2024/01/22 02:21:59;;;;;;;0.00;0.00;;;;;;;3.34;100.00;99278.31;5055122;28;20227;-53
2024/01/22 02:24:47;;;;;;;0.10;0.10;;;;;;;3.32;100.00;99309.78;5034159;28;20267;-52
2024/01/22 02:27:34;;;;;;;0.00;0.00;;;;;;;3.28;100.00;99268.94;5034303;28;20663;-52
2024/01/22 02:30:21;;;;;;;0.10;0.10;;;;;;;3.25;100.00;99263.78;5035152;28;20207;-52
2024/01/22 02:33:07;;;;;;;0.10;0.10;;;;;;;3.29;100.00;99239.22;5042050;28;20200;-52
2024/01/22 02:35:54;;;;;;;0.00;0.00;;;;;;;3.34;100.00;99250.38;5055054;28;20196;-52
2024/01/22 02:38:41;;;;;;;0.00;0.00;;;;;;;3.47;100.00;99255.19;5054878;28;20196;-52
2024/01/22 02:41:29;;;;;;;0.00;0.00;;;;;;;3.42;100.00;99245.75;5053749;28;20238;-52
2024/01/22 02:44:16;;;;;;;0.00;0.00;;;;;;;3.43;100.00;99244.84;5054492;28;20212;-53
2024/01/22 02:47:03;;;;;;;0.00;0.00;;;;;;;3.49;100.00;99256.03;5054735;28;20196;-52
2024/01/22 02:49:50;;;;;;;0.10;0.10;;;;;;;3.47;100.00;99229.03;5054762;28;20192;-51
2024/01/22 02:52:37;;;;;;;0.00;0.00;;;;;;;3.55;100.00;99230.47;5054714;28;20184;-52
2024/01/22 02:55:24;;;;;;;0.10;0.10;;;;;;;3.57;100.00;99207.72;5053237;28;20192;-52
2024/01/22 02:58:12;;;;;;;0.10;0.10;;;;;;;3.65;100.00;99208.28;5054594;28;20195;-53
2024/01/22 03:00:59;;;;;;;0.00;0.00;;;;;;;3.52;100.00;99217.50;5054606;28;20216;-52
2024/01/22 03:03:46;;;;;;;0.03;0.03;;;;;;;3.54;100.00;99199.97;5053682;28;20226;-52
2024/01/22 03:06:32;;;;;;;0.03;0.03;;;;;;;3.56;100.00;99192.91;5054765;28;20192;-53
2024/01/22 03:09:19;;;;;;;0.00;0.00;;;;;;;3.62;100.00;99178.75;5053138;28;20201;-53
2024/01/22 03:12:07;;;;;;;0.07;0.07;;;;;;;3.60;100.00;99162.25;5053779;28;20732;-52
2024/01/22 03:14:54;;;;;;;0.07;0.07;;;;;;;3.56;100.00;99151.00;5034421;28;20193;-53
2024/01/22 03:17:41;;;;;;;0.00;0.00;;;;;;;3.56;100.00;99143.16;5034309;28;20279;-52
2024/01/22 03:20:28;;;;;;;0.00;0.00;;;;;;;3.58;100.00;99148.34;5034049;28;20255;-52
2024/01/22 03:23:15;;;;;;;0.00;0.00;;;;;;;3.66;100.00;99151.53;5041380;28;20286;-52
2024/01/22 03:26:03;;;;;;;0.00;0.00;;;;;;;3.62;100.00;99156.03;5052813;28;20235;-53
2024/01/22 03:28:50;;;;;;;0.00;0.00;;;;;;;3.68;100.00;99126.16;5053840;28;20196;-52
2024/01/22 03:31:38;;;;;;;0.10;0.10;;;;;;;3.70;100.00;99104.25;5053951;28;20187;-53
2024/01/22 03:34:25;;;;;;;0.00;0.00;;;;;;;3.71;100.00;99089.38;5053845;28;20195;-52
2024/01/22 03:37:12;;;;;;;0.00;0.00;;;;;;;3.70;100.00;99079.81;5053735;28;20209;-52
2024/01/22 03:39:59;;;;;;;0.00;0.00;;;;;;;3.76;100.00;99081.31;5052729;28;20192;-52
2024/01/22 03:42:46;;;;;;;0.07;0.07;;;;;;;3.68;100.00;99068.53;5053635;28;20542;-52
2024/01/22 03:45:32;;;;;;;0.00;0.00;;;;;;;3.76;100.00;99053.38;5053616;28;20242;-52
2024/01/22 03:48:21;;;;;;;0.10;0.10;;;;;;;3.84;100.00;99046.06;5053669;28;20314;-52
2024/01/22 03:51:08;;;;;;;0.10;0.10;;;;;;;3.84;100.00;99039.97;5053664;28;20208;-52
2024/01/22 03:53:56;;;;;;;0.03;0.03;;;;;;;3.81;100.00;99038.34;5053397;28;20275;-52
2024/01/22 03:56:43;;;;;;;0.00;0.00;;;;;;;3.84;100.00;99040.84;5053491;28;20678;-52
2024/01/22 03:59:30;;;;;;;0.00;0.00;;;;;;;3.86;100.00;99061.72;5052733;28;20284;-52
2024/01/22 04:02:17;;;;;;;0.10;0.10;;;;;;;3.90;100.00;99047.63;5053206;28;20200;-52
2024/01/22 04:05:08;;;;;;;0.00;0.00;;;;;;;3.92;100.00;99046.63;5033532;28;20270;-52
2024/01/22 04:07:54;;;;;;;0.00;0.00;;;;;;;3.85;100.00;99032.06;5033547;28;20200;-52
2024/01/22 04:10:41;;;;;;;0.00;0.00;;;;;;;3.92;100.00;98998.63;5031878;28;20212;-53
2024/01/22 04:13:28;;;;;;;0.10;0.10;;;;;;;3.84;100.00;98998.91;5041476;28;20391;-52
2024/01/22 04:16:21;;;;;;;0.10;0.10;;;;;;;3.76;100.00;99011.47;5053239;28;20284;-53
2024/01/22 04:19:07;;;;;;;0.10;0.10;;;;;;;3.77;100.00;99000.09;5053079;28;20741;-52
2024/01/22 04:21:56;;;;;;;0.10;0.10;;;;;;;3.68;100.00;98996.06;5053025;28;20196;-53
2024/01/22 04:24:43;;;;;;;0.00;0.00;;;;;;;3.77;100.00;99005.34;5051437;28;20271;-53
2024/01/22 04:27:30;;;;;;;0.00;0.00;;;;;;;3.79;100.00;98995.66;5053028;28;20192;-53
2024/01/22 04:30:17;;;;;;;0.10;0.10;;;;;;;3.91;100.00;99005.63;5052907;28;20199;-52
2024/01/22 04:33:04;;;;;;;0.10;0.10;;;;;;;3.95;100.00;98990.63;5052950;28;20211;-52
2024/01/22 04:35:51;;;;;;;0.10;0.10;;;;;;;4.21;100.00;98994.84;5052998;28;20196;-52
2024/01/22 04:38:40;;;;;;;0.00;0.00;;;;;;;4.27;100.00;98986.72;5052842;28;20322;-53
2024/01/22 04:41:27;;;;;;;0.00;0.00;;;;;;;4.44;100.00;99005.25;5051645;28;20219;-53
2024/01/22 04:44:13;;;;;;;0.00;0.00;;;;;;;4.54;100.00;98992.59;5052619;28;20347;-52
2024/01/22 04:47:01;;;;;;;0.00;0.00;;;;;;;4.64;100.00;98982.56;5052842;28;20195;-52
2024/01/22 04:49:48;;;;;;;0.00;0.00;;;;;;;4.64;100.00;98980.81;5052184;28;20271;-52
2024/01/22 04:52:34;;;;;;;0.00;0.00;;;;;;;4.70;100.00;98969.19;5052656;28;20262;-52
2024/01/22 04:55:23;;;;;;;0.10;0.10;;;;;;;4.75;100.00;98982.97;5051404;28;20778;-52
2024/01/22 04:58:13;;;;;;;0.00;0.00;;;;;;;4.69;100.00;98965.69;5032747;28;20228;-52
2024/01/22 05:01:00;;;;;;;0.00;0.00;;;;;;;4.70;100.00;98963.94;5033916;28;20197;-53
2024/01/22 05:03:47;;;;;;;0.10;0.10;;;;;;;4.75;100.00;98965.44;5037144;28;20243;-53
2024/01/22 05:06:34;;;;;;;0.00;0.00;;;;;;;4.75;100.00;98957.56;5052617;28;20278;-52
2024/01/22 05:09:21;;;;;;;0.00;0.00;;;;;;;4.67;100.00;98949.19;5051320;28;20717;-52
2024/01/22 05:12:09;;;;;;;0.10;0.10;;;;;;;4.70;100.00;98940.31;5052786;28;20195;-52
2024/01/22 05:14:56;;;;;;;0.07;0.07;;;;;;;4.67;100.00;98945.72;5052373;28;20283;-52
2024/01/22 05:17:43;;;;;;;0.00;0.00;;;;;;;4.65;100.00;98943.16;5052528;28;20196;-52
2024/01/22 05:20:30;;;;;;;0.10;0.10;;;;;;;4.76;100.00;98982.03;5052493;28;20192;-52
2024/01/22 05:23:17;;;;;;;0.00;0.00;;;;;;;4.77;100.00;98933.88;5052563;28;20200;-52
2024/01/22 05:26:05;;;;;;;0.10;0.10;;;;;;;4.75;100.00;98927.88;5051147;28;20263;-52
2024/01/22 05:28:53;;;;;;;0.00;0.00;;;;;;;4.69;100.00;98931.59;5052258;28;20231;-52
2024/01/22 05:31:40;;;;;;;0.00;0.00;;;;;;;4.85;100.00;98910.78;5052442;28;20208;-52
2024/01/22 05:34:27;;;;;;;0.10;0.10;;;;;;;4.83;100.00;98910.03;5052279;28;20671;-52
2024/01/22 05:37:14;;;;;;;0.10;0.10;;;;;;;4.91;100.00;98933.25;5052377;28;20239;-52
2024/01/22 05:40:01;;;;;;;0.00;0.00;;;;;;;4.89;100.00;98939.44;5050988;28;20200;-52
2024/01/22 05:42:47;;;;;;;0.00;0.00;;;;;;;5.03;100.00;98951.13;5052435;28;20193;-53
2024/01/22 05:45:35;;;;;;;0.10;0.10;;;;;;;4.97;100.00;98954.84;5051972;28;20287;-52
2024/01/22 05:48:22;;;;;;;0.03;0.03;;;;;;;4.92;100.00;98941.06;5052184;28;20204;-52
2024/01/22 05:51:10;;;;;;;0.00;0.00;;;;;;;4.87;100.00;98925.53;5051419;28;20239;-53
2024/01/22 05:53:57;;;;;;;0.10;0.10;;;;;;;4.99;100.00;98939.03;5052142;28;20200;-52
2024/01/22 05:56:44;;;;;;;0.10;0.10;;;;;;;5.01;100.00;98909.16;5052214;28;20201;-52
2024/01/22 05:59:31;;;;;;;0.10;0.10;;;;;;;5.04;100.00;98910.81;5052153;28;20192;-52
2024/01/22 06:02:19;;;;;;;0.10;0.10;;;;;;;4.94;100.00;98909.53;5053314;28;20554;-52
2024/01/22 06:05:07;;;;;;;0.00;0.00;;;;;;;4.94;100.00;98889.38;4995004;28;20702;-52
2024/01/22 06:07:54;;;;;;;0.00;0.00;;;;;;;5.00;100.00;98907.47;4996317;28;20310;-52
2024/01/22 06:10:42;;;;;;;0.00;0.00;;;;;;;5.05;100.00;98897.63;4994942;28;20190;-52
2024/01/22 06:13:29;;;;;;;0.00;0.00;;;;;;;5.07;100.00;98901.03;5002494;28;20273;-53
2024/01/22 06:16:16;;;;;;;0.10;0.10;;;;;;;5.08;100.00;98891.38;5015919;28;20240;-52
2024/01/22 06:19:04;;;;;;;0.10;0.10;;;;;;;5.03;100.00;98893.38;5015746;28;20201;-52
2024/01/22 06:21:51;;;;;;;0.10;0.10;;;;;;;5.01;100.00;98919.66;5015454;28;20272;-52
2024/01/22 06:24:38;;;;;;;0.07;0.07;;;;;;;5.02;100.00;98907.38;5014063;28;20265;-52
2024/01/22 06:27:25;;;;;;;0.10;0.10;;;;;;;4.85;100.00;98914.28;5015501;28;20201;-52
2024/01/22 06:30:15;;;;;;;0.00;0.00;;;;;;;4.88;100.00;98897.53;5015268;28;20205;-52
2024/01/22 06:33:02;;;;;;;0.10;0.10;;;;;;;4.75;100.00;98876.25;5014401;28;20454;-53
2024/01/22 06:35:50;;;;;;;0.00;0.00;;;;;;;4.60;100.00;98892.66;5015546;28;20193;-53
2024/01/22 06:38:37;;;;;;;0.00;0.00;;;;;;;4.52;100.00;98889.50;5015317;28;20192;-52
2024/01/22 06:41:25;;;;;;;0.10;0.10;;;;;;;4.44;100.00;98889.00;5014237;28;20574;-53
2024/01/22 06:44:15;;;;;;;0.10;0.10;;;;;;;4.34;100.00;98890.31;5015059;28;20205;-53
2024/01/22 06:47:02;;;;;;;0.10;0.10;;;;;;;4.35;100.00;98890.28;5014941;28;20240;-53
2024/01/22 06:49:49;;;;;;;0.10;0.10;;;;;;;4.20;100.00;98898.78;5015037;28;20265;-53
2024/01/22 06:52:37;;;;;;;0.00;0.00;;;;;;;4.13;100.00;98902.56;5015045;28;20194;-53
2024/01/22 06:55:24;;;;;;;0.00;0.00;;;;;;;4.20;100.00;98906.63;4993851;28;20246;-53
2024/01/22 06:58:11;;;;;;;0.00;0.00;;;;;;;4.18;100.00;98904.09;4995240;28;20238;-52
2024/01/22 07:00:58;;;;;;;0.10;0.10;;;;;;;4.12;100.00;98908.72;4995482;28;20198;-52
2024/01/22 07:03:45;;;;;;;0.00;0.00;;;;;;;4.08;100.00;98900.16;5035250;28;20224;-52
2024/01/22 07:06:32;;;;;;;0.00;0.00;;;;;;;4.17;100.00;98919.88;5054317;28;20215;-52
2024/01/22 07:09:20;;;;;;;0.10;0.10;;;;;;;3.97;100.00;98900.59;5052982;28;20211;-52
2024/01/22 07:12:08;;;;;;;0.10;0.10;;;;;;;3.97;100.00;98899.75;5054148;28;20204;-52
2024/01/22 07:14:55;;;;;;;0.00;0.00;;;;;;;3.97;100.00;98895.38;5054266;28;20203;-52
2024/01/22 07:17:42;;;;;;;0.00;0.00;;;;;;;3.97;100.00;98902.38;5054403;28;20199;-52
2024/01/22 07:20:29;;;;;;;0.10;0.10;;;;;;;4.01;100.00;98896.91;5054129;28;20212;-52
2024/01/22 07:23:16;;;;;;;0.00;0.00;;;;;;;4.06;100.00;98902.00;5054147;28;20191;-52
2024/01/22 07:26:05;;;;;;;0.00;0.00;;;;;;;4.10;100.00;98902.69;5052618;28;20250;-52
2024/01/22 07:28:52;;;;;;;0.10;0.10;;;;;;;4.08;100.00;98902.78;5053926;28;20211;-53
2024/01/22 07:31:39;;;;;;;0.00;0.00;;;;;;;4.11;100.00;98896.53;5054161;28;20196;-53
2024/01/22 07:34:26;;;;;;;0.00;0.00;;;;;;;4.18;100.00;98903.22;5053823;28;20208;-53
2024/01/22 07:37:13;;;;;;;0.07;0.07;;;;;;;4.15;100.00;98906.84;5053811;28;20203;-52
2024/01/22 07:40:00;;;;;;;0.10;0.10;;;;;;;4.19;100.00;98902.31;5051988;28;20199;-52
2024/01/22 07:42:49;;;;;;;0.00;0.00;;;;;;;4.26;100.00;98911.63;5053822;28;20196;-53
2024/01/22 07:45:35;;;;;;;0.00;0.00;;;;;;;4.42;100.00;98914.44;5033670;28;20332;-53
2024/01/22 07:48:22;;;;;;;0.00;0.00;;;;;;;4.22;100.00;98896.94;5033816;28;20197;-52
2024/01/22 07:51:09;;;;;;;0.00;0.00;;;;;;;4.37;100.00;98898.91;5033678;28;20220;-52
2024/01/22 07:53:56;;;;;;;0.00;0.00;;;;;;;4.38;100.00;98912.88;5042297;28;20327;-52
2024/01/22 07:56:43;;;;;;;0.00;0.00;;;;;;;4.36;100.00;98889.34;5053529;28;20203;-52
2024/01/22 07:59:31;;;;;;;0.00;0.00;;;;;;;4.47;100.00;98913.34;5053415;28;20196;-52
2024/01/22 08:02:18;;;;;;;0.00;0.00;;;;;;;4.51;100.00;98908.78;5053363;28;20255;-52
2024/01/22 08:05:05;;;;;;;0.10;0.10;;;;;;;4.53;100.00;98896.47;5053297;28;20335;-53
2024/01/22 08:07:52;;;;;;;0.00;0.00;;;;;;;4.60;100.00;98888.25;5053494;28;20255;-53
2024/01/22 08:10:39;;;;;;;0.00;0.00;;;;;;;4.51;100.00;98899.16;5051971;28;20238;-53
2024/01/22 08:13:26;;;;;;;0.10;0.10;;;;;;;4.51;100.00;98883.41;5053179;28;20289;-52
2024/01/22 08:16:14;;;;;;;0.00;0.00;;;;;;;4.58;100.00;98884.00;5053267;28;20192;-52
2024/01/22 08:19:01;;;;;;;0.00;0.00;;;;;;;4.60;100.00;98876.91;5053132;28;20253;-53
2024/01/22 08:21:48;;;;;;;0.10;0.10;;;;;;;4.77;100.00;98902.41;5053311;28;20199;-52
2024/01/22 08:24:35;;;;;;;0.00;0.00;;;;;;;4.80;100.00;98870.78;5050890;28;20200;-53
2024/01/22 08:27:22;;;;;;;0.07;0.07;;;;;;;4.77;100.00;98876.19;5053105;28;20263;-53
2024/01/22 08:30:10;;;;;;;0.00;0.00;;;;;;;5.00;100.00;98867.25;5053063;28;20682;-52
2024/01/22 08:32:58;;;;;;;0.00;0.00;;;;;;;4.95;100.00;98880.59;5052468;28;20675;-53
2024/01/22 08:35:45;;;;;;;0.10;0.10;;;;;;;5.03;100.00;98875.00;5053026;28;20195;-53
2024/01/22 08:38:33;;;;;;;0.00;0.00;;;;;;;4.98;100.00;98862.06;5052682;28;20200;-53
2024/01/22 08:41:21;;;;;;;0.10;0.10;;;;;;;4.89;100.00;98859.88;5051520;28;20278;-52
2024/01/22 08:44:08;;;;;;;0.10;0.10;;;;;;;5.01;100.00;98875.03;5052585;28;20282;-53
2024/01/22 08:46:55;;;;;;;0.00;0.00;;;;;;;5.01;100.00;98877.66;5052611;28;20220;-52
2024/01/22 08:49:44;;;;;;;0.00;0.00;;;;;;;4.95;100.00;98871.88;5052594;28;20717;-52
2024/01/22 08:52:30;;;;;;;0.00;0.00;;;;;;;4.86;100.00;98868.75;5052615;28;20196;-52
2024/01/22 08:55:18;;;;;;;0.00;0.00;;;;;;;4.94;100.00;98847.41;5051427;28;20196;-52
2024/01/22 08:58:06;;;;;;;0.07;0.07;;;;;;;4.84;100.00;98846.97;5052764;28;20216;-52
2024/01/22 09:00:53;;;;;;;0.10;0.10;;;;;;;4.86;100.00;98871.38;5052700;28;20203;-52
2024/01/22 09:03:40;;;;;;;0.03;0.03;;;;;;;4.91;100.00;98857.16;5052373;28;20224;-52
2024/01/22 09:06:28;;;;;;;0.00;0.00;;;;;;;4.98;100.00;98864.69;5052437;28;20216;-53
2024/01/22 09:09:16;;;;;;;0.00;0.00;;;;;;;4.87;100.00;98866.97;5036010;28;20204;-53
2024/01/22 09:12:03;;;;;;;0.00;0.00;;;;;;;4.99;100.00;98874.28;5032770;28;20200;-53
2024/01/22 09:14:50;;;;;;;0.00;0.00;;;;;;;5.18;100.00;98874.28;5047608;28;20204;-54
2024/01/22 09:17:38;;;;;;;0.10;0.10;;;;;;;5.08;100.00;98876.47;5052345;28;20215;-53
2024/01/22 09:20:25;;;;;;;0.07;0.07;;;;;;;5.10;100.00;98858.03;5052450;28;20361;-53
2024/01/22 09:23:15;;;;;;;0.00;0.00;;;;;;;5.07;100.00;98847.69;5052440;28;20196;-53
2024/01/22 09:26:03;;;;;;;0.00;0.00;;;;;;;5.42;100.00;98872.28;5051001;28;20415;-52
2024/01/22 09:28:50;;;;;;;0.10;0.10;;;;;;;5.26;100.00;98859.00;5052301;28;20247;-53
2024/01/22 09:31:37;;;;;;;0.00;0.00;;;;;;;5.38;100.00;98849.69;5052359;28;20323;-53
2024/01/22 09:34:24;;;;;;;0.00;0.00;;;;;;;5.45;100.00;98846.72;5052261;28;20200;-53
2024/01/22 09:37:11;;;;;;;0.03;0.03;;;;;;;5.43;100.00;98826.72;5054489;28;20195;-53
2024/01/22 09:39:59;;;;;;;0.10;0.10;;;;;;;5.74;100.00;98836.56;5051700;28;20246;-53
2024/01/22 09:42:49;;;;;;;0.00;0.00;;;;;;;5.65;100.00;98834.38;5054246;28;20663;-54
2024/01/22 09:45:36;;;;;;;0.00;0.00;;;;;;;5.77;100.00;98815.38;5035809;28;20243;-53
2024/01/22 09:48:23;;;;;;;0.10;0.10;;;;;;;5.91;100.00;98827.88;5035954;28;20201;-53
2024/01/22 09:51:12;;;;;;;0.10;0.10;;;;;;;5.91;100.00;98827.88;5035757;28;20201;-53
2024/01/22 09:54:06;;;;;;;0.10;0.10;;;;;;;5.92;100.00;98811.16;5043337;28;20196;-54
2024/01/22 09:56:56;;;;;;;0.00;0.00;;;;;;;5.98;100.00;98805.59;5055525;28;20709;-54
2024/01/22 09:59:44;;;;;;;0.10;0.10;;;;;;;6.00;100.00;98791.44;5055184;28;20327;-53
2024/01/22 10:02:31;;;;;;;0.00;0.00;;;;;;;6.08;100.00;98791.06;5055572;28;20311;-53
2024/01/22 10:05:18;;;;;;;0.10;0.10;;;;;;;6.08;100.00;98785.81;5055434;28;20271;-53
2024/01/22 10:08:06;;;;;;;0.00;0.00;;;;;;;6.08;100.00;98808.59;5055667;28;20208;-53
2024/01/22 10:10:53;;;;;;;0.10;0.10;;;;;;;5.99;100.00;98787.13;5054285;28;20192;-53
2024/01/22 10:13:52;;;;;;;0.00;0.00;;;;;;;5.99;100.00;98823.94;5055355;28;20239;-53
2024/01/22 10:16:39;;;;;;;0.00;0.00;;;;;;;6.07;100.00;98818.25;5055439;28;20670;-53
2024/01/22 10:19:27;;;;;;;0.00;0.00;;;;;;;6.09;100.00;98819.06;5055417;28;20192;-53
2024/01/22 10:22:17;;;;;;;0.00;0.00;;;;;;;6.32;100.00;98810.81;5054096;28;20203;-54
2024/01/22 10:25:05;;;;;;;0.00;0.00;;;;;;;6.54;100.00;98796.53;5052475;28;20204;-53
2024/01/22 10:28:08;;;;;;;0.00;0.00;;;;;;;6.77;100.00;98792.66;5053916;28;20220;-53
2024/01/22 10:31:04;;;;;;;0.00;0.00;;;;;;;6.95;100.00;98785.53;5054377;28;20199;-53
2024/01/22 10:34:05;;;;;;;0.10;0.10;;;;;;;6.98;100.00;98785.38;5054014;28;20200;-53
2024/01/22 10:37:07;;;;;;;0.10;0.10;;;;;;;7.07;100.00;98800.66;5054093;28;20200;-54
2024/01/22 10:40:01;;;;;;;0.00;0.00;;;;;;;6.98;100.00;98836.25;5052532;28;20291;-54
2024/01/22 10:42:49;;;;;;;0.00;0.00;;;;;;;6.99;100.00;98777.38;5053546;28;20196;-53
2024/01/22 10:45:36;;;;;;;0.00;0.00;;;;;;;7.02;100.00;98785.09;5034056;28;20208;-53
2024/01/22 10:48:27;;;;;;;0.00;0.00;;;;;;;7.05;100.00;98789.38;5017632;28;20197;-54
2024/01/22 10:51:30;;;;;;;0.10;0.10;;;;;;;7.08;100.00;98783.91;5033827;28;20259;-53
2024/01/22 10:54:17;;;;;;;0.10;0.10;;;;;;;7.12;100.00;98788.06;5040874;28;20204;-53
2024/01/22 10:57:05;;;;;;;0.10;0.10;;;;;;;7.06;100.00;98784.00;5053820;28;20192;-53
2024/01/22 10:59:53;;;;;;;0.00;0.00;;;;;;;6.93;100.00;98788.25;5053273;28;20207;-53
2024/01/22 11:02:46;;;;;;;0.10;0.10;;;;;;;7.06;100.00;98786.66;5053391;28;20188;-53
2024/01/22 11:05:37;;;;;;;0.00;0.00;;;;;;;7.01;100.00;98780.78;5053073;28;20196;-54
2024/01/22 11:08:27;;;;;;;0.00;0.00;;;;;;;7.04;100.00;98791.13;5052676;28;20220;-53
2024/01/22 11:11:15;;;;;;;0.00;0.00;;;;;;;6.89;100.00;98789.34;5031869;28;20779;-54
2024/01/22 11:14:02;;;;;;;0.10;0.10;;;;;;;7.05;100.00;98805.16;5039645;28;20208;-53
2024/01/22 11:16:49;;;;;;;0.00;0.00;;;;;;;6.98;100.00;98788.00;5051952;28;20196;-53
2024/01/22 11:19:36;;;;;;;0.00;0.00;;;;;;;7.00;100.00;98794.03;5053961;28;20192;-53
2024/01/22 11:22:26;;;;;;;0.00;0.00;;;;;;;7.00;100.00;98804.56;5053244;28;20647;-54
2024/01/22 11:25:14;;;;;;;0.00;0.00;;;;;;;6.97;100.00;98802.94;5052357;28;20204;-53
2024/01/22 11:28:02;;;;;;;0.00;0.00;;;;;;;6.87;100.00;98794.72;5052624;28;20247;-53
2024/01/22 11:30:49;;;;;;;0.00;0.00;;;;;;;6.87;100.00;98793.88;5053068;28;20219;-53
2024/01/22 11:33:37;;;;;;;0.00;0.00;;;;;;;6.75;100.00;98789.25;5051019;28;20220;-53
2024/01/22 11:36:53;;;;;;;0.00;0.00;;;;;;;6.91;100.00;98784.00;5052776;28;20235;-53
2024/01/22 11:39:46;;;;;;;0.00;0.00;;;;;;;6.95;100.00;98790.78;5050604;28;20199;-53
2024/01/22 11:42:35;;;;;;;0.07;0.07;;;;;;;6.66;100.00;98795.00;5051380;28;20264;-53
2024/01/22 11:45:22;;;;;;;0.00;0.00;;;;;;;6.81;100.00;98781.88;5052246;28;20196;-53
2024/01/22 11:48:19;;;;;;;0.00;0.00;;;;;;;6.75;100.00;98778.72;5051842;28;20212;-54
2024/01/22 11:51:09;;;;;;;0.00;0.00;;;;;;;6.65;100.00;98774.88;5052523;28;20352;-53
2024/01/22 11:53:57;;;;;;;0.00;0.00;;;;;;;6.64;100.00;98771.41;5051971;28;20282;-53
2024/01/22 11:56:46;;;;;;;0.10;0.10;;;;;;;6.72;100.00;98769.22;5052090;28;20216;-53
2024/01/22 11:59:35;;;;;;;0.00;0.00;;;;;;;6.70;100.00;98757.09;5051539;28;20208;-53
2024/01/22 12:02:22;;;;;;;0.00;0.00;;;;;;;6.59;100.00;98749.78;5052160;28;20279;-53
2024/01/22 12:05:12;;;;;;;0.00;0.00;;;;;;;6.48;100.00;98755.63;5050752;28;20247;-53
2024/01/22 12:08:00;;;;;;;0.10;0.10;;;;;;;6.54;100.00;98743.91;5051985;28;20698;-53
2024/01/22 12:10:50;;;;;;;0.00;0.00;;;;;;;6.53;100.00;98744.84;5050225;28;20199;-53
2024/01/22 12:13:38;;;;;;;0.00;0.00;;;;;;;6.53;100.00;98734.31;5052199;28;20188;-53
2024/01/22 12:16:26;;;;;;;0.00;0.00;;;;;;;6.51;100.00;98729.13;5052192;28;20204;-53
2024/01/22 12:19:13;;;;;;;0.10;0.10;;;;;;;6.59;100.00;98732.22;5051688;28;20188;-53
2024/01/22 12:22:00;;;;;;;0.00;0.00;;;;;;;6.52;100.00;98727.34;5052020;28;20686;-53
2024/01/22 12:25:02;;;;;;;0.00;0.00;;;;;;;6.58;100.00;98719.13;5050836;28;20290;-54
2024/01/22 12:27:52;;;;;;;0.00;0.00;;;;;;;6.70;100.00;98730.78;5051952;28;20313;-53
2024/01/22 12:30:42;;;;;;;0.00;0.00;;;;;;;6.72;100.00;98721.00;5052076;28;20195;-53
2024/01/22 12:33:31;;;;;;;0.00;0.00;;;;;;;6.65;100.00;98732.78;5050979;28;20280;-53
2024/01/22 12:36:19;;;;;;;0.00;0.00;;;;;;;6.64;100.00;98720.56;5036763;28;20200;-54
2024/01/22 12:39:07;;;;;;;0.00;0.00;;;;;;;6.65;100.00;98717.00;5050594;28;20188;-53
2024/01/22 12:41:54;;;;;;;0.00;0.00;;;;;;;6.79;100.00;98744.25;5051779;28;20263;-53
2024/01/22 12:44:42;;;;;;;0.00;0.00;;;;;;;6.78;100.00;98721.50;5051943;28;20322;-53
2024/01/22 12:47:33;;;;;;;0.00;0.00;;;;;;;6.86;100.00;98711.41;5051753;28;20211;-53
2024/01/22 12:50:22;;;;;;;0.00;0.00;;;;;;;6.80;100.00;98703.84;5051751;28;20204;-53
2024/01/22 12:53:10;;;;;;;0.10;0.10;;;;;;;6.69;100.00;98710.66;5051605;28;20268;-53
2024/01/22 12:55:57;;;;;;;0.00;0.00;;;;;;;6.82;100.00;98716.91;5029942;28;20687;-53
2024/01/22 12:58:44;;;;;;;0.00;0.00;;;;;;;6.85;100.00;98698.31;5031478;28;20197;-54
2024/01/22 13:01:32;;;;;;;0.00;0.00;;;;;;;6.83;100.00;98698.41;5031833;28;20240;-53
2024/01/22 13:04:20;;;;;;;0.00;0.00;;;;;;;6.88;100.00;98695.53;5038862;28;20223;-53
2024/01/22 13:07:07;;;;;;;0.00;0.00;;;;;;;6.93;100.00;98692.63;5052040;28;20721;-53
2024/01/22 13:09:54;;;;;;;0.00;0.00;;;;;;;6.95;100.00;98699.53;5051111;28;20204;-53
2024/01/22 13:12:41;;;;;;;0.00;0.00;;;;;;;7.06;100.00;98689.22;5055978;28;20199;-53